Alleyton, Texas
Current Conditions -  °F | °C
As of 3:55 AM on Thursday 29 Jan 2015 (Local Time) from K66R Reporting Station
Moderate Fog Moderate Fog  
Wind Chill: 58°   Ceiling: 300
Heat Index: 58°   Visibility: 0.5mi
Dew Point: 58°   Wind: 5mph
Humidity: 100%   Direction: 190°S
Pressure: 30.15"   Gusts: NA
Location:  29.71°N, 96.49°W
Report Text: K66R 290955Z AUTO 19004KT 1/2SM FG OVC003 15/15 A3015 RMK AO2 T01470147
Loading
Personal Weather Stations






























Interactive Weather Map New forecast layout! Learn more

10-Day Weather Forecast

Advertisements
Track Severe Weather on mobile